Time;durP1;ratioP1;P1;durP2;ratioP2;P2;SDS_P1;SDS_P2;PMS_P1;PMS_P2;Temp;Humidity;BMP_temperature;BMP_pressure;BME280_temperature;BME280_humidity;BME280_pressure;Samples;Min_cycle;Max_cycle;Signal;HPM_P1;HPM_P2
2023/04/17 00:01:38;;;;;;;15.32;12.07;;;333.60;2329.60;;;;;;5013010;28;20453;-79
2023/04/17 00:04:04;;;;;;;19.90;14.82;;;333.30;2329.60;;;;;;5012919;28;20029;-80
2023/04/17 00:06:32;;;;;;;20.17;15.35;;;333.20;2329.60;;;;;;5013818;28;20033;-80
2023/04/17 00:08:59;;;;;;;19.83;15.27;;;333.20;2329.60;;;;;;5013260;28;20026;-79
2023/04/17 00:11:25;;;;;;;20.08;14.68;;;333.20;2329.60;;;;;;5013599;28;20462;-79
2023/04/17 00:13:51;;;;;;;17.88;12.20;;;333.30;2329.60;;;;;;5013460;28;20079;-80
2023/04/17 00:16:16;;;;;;;18.23;12.43;;;333.20;2329.60;;;;;;5013179;28;20037;-80
2023/04/17 00:18:42;;;;;;;24.38;16.52;;;333.30;2329.60;;;;;;5013990;28;20030;-81
2023/04/17 00:21:08;;;;;;;20.48;14.45;;;333.30;2329.60;;;;;;5013692;28;20435;-80
2023/04/17 00:23:34;;;;;;;19.92;13.40;;;333.10;2329.60;;;;;;5014458;28;20033;-80
2023/04/17 00:26:00;;;;;;;16.60;12.13;;;333.30;2329.60;;;;;;5013182;28;20034;-80
2023/04/17 00:28:25;;;;;;;18.73;11.73;;;333.20;2329.60;;;;;;5008466;28;20402;-79
2023/04/17 00:30:51;;;;;;;16.45;11.80;;;333.30;2329.60;;;;;;4992951;28;20022;-80
2023/04/17 00:33:17;;;;;;;14.73;10.15;;;333.20;2329.60;;;;;;5009205;28;20026;-80
2023/04/17 00:35:43;;;;;;;14.98;8.80;;;333.30;2329.60;;;;;;5009484;28;20493;-81
2023/04/17 00:38:09;;;;;;;15.05;9.65;;;333.20;2329.60;;;;;;5009706;28;20105;-80
2023/04/17 00:40:35;;;;;;;13.98;9.80;;;333.30;2329.60;;;;;;4994726;28;20323;-80
2023/04/17 00:43:05;;;;;;;16.63;10.88;;;333.40;2329.60;;;;;;5009153;28;20037;-79
2023/04/17 00:45:31;;;;;;;17.58;12.07;;;333.40;2329.60;;;;;;5009697;28;20030;-79
2023/04/17 00:47:59;;;;;;;22.95;14.32;;;333.40;2329.60;;;;;;4993288;28;20036;-80
2023/04/17 00:50:27;;;;;;;17.92;13.75;;;333.40;2329.60;;;;;;4992953;28;20474;-79
2023/04/17 00:52:54;;;;;;;18.05;13.02;;;333.20;2329.60;;;;;;5009714;28;20437;-81
2023/04/17 00:55:19;;;;;;;14.57;10.70;;;333.10;2329.60;;;;;;4993136;28;20475;-80
2023/04/17 00:57:48;;;;;;;17.27;11.00;;;333.00;2329.60;;;;;;5009145;28;20050;-81
2023/04/17 01:00:15;;;;;;;15.45;11.27;;;333.10;2329.60;;;;;;4993188;28;20356;-80
2023/04/17 01:02:41;;;;;;;15.30;9.48;;;333.10;2329.60;;;;;;4993180;28;20034;-80
2023/04/17 01:05:08;;;;;;;15.57;11.27;;;333.20;2329.60;;;;;;5009305;28;20034;-80
2023/04/17 01:07:34;;;;;;;17.88;12.88;;;333.50;2329.60;;;;;;4993268;28;20057;-80
2023/04/17 01:10:00;;;;;;;12.98;9.77;;;333.10;2329.60;;;;;;5009415;28;20031;-79
2023/04/17 01:12:25;;;;;;;13.75;10.07;;;332.90;2329.60;;;;;;5009347;28;20077;-80
2023/04/17 01:14:55;;;;;;;22.70;12.82;;;332.90;2329.60;;;;;;5009484;28;20474;-80
2023/04/17 01:17:24;;;;;;;18.08;12.50;;;333.10;2329.60;;;;;;4992931;28;20022;-80
2023/04/17 01:19:51;;;;;;;14.18;10.15;;;333.10;2329.60;;;;;;4992636;28;20033;-80
2023/04/17 01:22:19;;;;;;;21.52;14.13;;;332.80;2329.60;;;;;;5009363;28;20037;-80
2023/04/17 01:24:45;;;;;;;17.58;12.10;;;308.00;2304.00;;;;;;4994013;28;20038;-80
2023/04/17 01:27:14;;;;;;;14.40;11.30;;;332.90;2329.60;;;;;;4996954;28;20030;-80
2023/04/17 01:29:41;;;;;;;20.70;12.57;;;332.80;2329.60;;;;;;5013151;28;20029;-80
2023/04/17 01:32:08;;;;;;;15.57;10.57;;;332.90;2329.60;;;;;;4996502;28;20030;-80
2023/04/17 01:34:34;;;;;;;15.13;11.90;;;333.00;2329.60;;;;;;5013132;28;20036;-80
2023/04/17 01:37:00;;;;;;;13.43;10.73;;;333.00;2329.60;;;;;;4998606;28;20130;-81
2023/04/17 01:39:26;;;;;;;18.05;12.43;;;333.10;2329.60;;;;;;5019288;28;20120;-81
2023/04/17 01:41:53;;;;;;;16.65;11.27;;;333.10;2329.60;;;;;;5035967;28;20025;-80
2023/04/17 01:44:19;;;;;;;15.23;11.85;;;332.90;2329.60;;;;;;5035974;28;20456;-80
2023/04/17 01:46:45;;;;;;;20.52;13.30;;;333.10;2329.60;;;;;;5035650;28;20029;-80
2023/04/17 01:49:11;;;;;;;18.75;13.63;;;333.10;2329.60;;;;;;5035955;28;20032;-79
2023/04/17 01:51:37;;;;;;;19.45;13.88;;;333.10;2329.60;;;;;;5035915;28;20385;-81
2023/04/17 01:54:03;;;;;;;17.98;12.15;;;333.20;2329.60;;;;;;5035422;28;20060;-80
2023/04/17 01:56:28;;;;;;;17.10;10.52;;;333.00;2329.60;;;;;;5035665;28;20464;-79
2023/04/17 01:58:54;;;;;;;16.23;11.07;;;332.90;2329.60;;;;;;5037191;28;20029;-79
2023/04/17 02:01:20;;;;;;;21.40;14.88;;;332.90;2329.60;;;;;;5035253;28;20472;-80
2023/04/17 02:03:46;;;;;;;25.08;15.90;;;333.00;2329.60;;;;;;5035767;28;20025;-80
2023/04/17 02:06:12;;;;;;;24.15;16.90;;;333.10;2329.60;;;;;;5037169;28;20377;-80
2023/04/17 02:08:37;;;;;;;14.13;10.75;;;333.00;2329.60;;;;;;5036442;28;20451;-80
2023/04/17 02:11:03;;;;;;;14.98;10.07;;;332.80;2329.60;;;;;;5035093;28;20033;-78
2023/04/17 02:13:29;;;;;;;13.95;9.30;;;308.10;2304.00;;;;;;5035479;28;20035;-81
2023/04/17 02:15:55;;;;;;;12.10;8.88;;;308.00;2304.00;;;;;;5035273;28;20033;-81
2023/04/17 02:18:21;;;;;;;14.55;9.05;;;307.80;2304.00;;;;;;5036710;28;20025;-82
2023/04/17 02:20:47;;;;;;;15.00;10.82;;;307.90;2304.00;;;;;;5035079;28;20028;-81
2023/04/17 02:23:13;;;;;;;16.65;11.18;;;307.80;2304.00;;;;;;5035334;28;20087;-80
2023/04/17 02:25:39;;;;;;;28.15;16.50;;;307.80;2304.00;;;;;;5035121;28;20034;-81
2023/04/17 02:28:05;;;;;;;32.92;19.10;;;307.70;2304.00;;;;;;5034762;28;20040;-80
2023/04/17 02:30:31;;;;;;;30.50;20.23;;;307.80;2304.00;;;;;;5034773;28;20032;-80
2023/04/17 02:32:57;;;;;;;21.40;13.70;;;308.10;2304.00;;;;;;5036312;28;20053;-80
2023/04/17 02:35:27;;;;;;;23.02;15.60;;;308.10;2304.00;;;;;;5017535;28;20029;-81
2023/04/17 02:37:52;;;;;;;16.20;12.48;;;307.90;2304.00;;;;;;5035624;28;20125;-80
2023/04/17 02:40:18;;;;;;;33.78;21.52;;;308.00;2304.00;;;;;;5018261;28;20144;-81
2023/04/17 02:42:44;;;;;;;26.70;19.27;;;332.80;2329.60;;;;;;5034543;28;20025;-80
2023/04/17 02:45:10;;;;;;;15.07;11.30;;;332.90;2329.60;;;;;;5018207;28;20026;-79
2023/04/17 02:47:36;;;;;;;21.70;12.93;;;308.00;2304.00;;;;;;5034854;28;20488;-79
2023/04/17 02:50:03;;;;;;;20.95;16.38;;;332.80;2329.60;;;;;;5035716;28;20021;-80
2023/04/17 02:52:29;;;;;;;22.40;16.25;;;332.90;2329.60;;;;;;5037546;28;20098;-81
2023/04/17 02:54:56;;;;;;;15.88;11.60;;;332.90;2329.60;;;;;;5036548;28;20025;-80
2023/04/17 02:57:23;;;;;;;15.35;10.23;;;332.90;2329.60;;;;;;5037802;28;20148;-80
2023/04/17 02:59:49;;;;;;;15.27;10.77;;;308.00;2304.00;;;;;;5037962;28;20025;-79
2023/04/17 03:02:20;;;;;;;14.73;10.00;;;332.80;2329.60;;;;;;5037890;28;20079;-81
2023/04/17 03:04:48;;;;;;;14.02;10.93;;;332.90;2329.60;;;;;;5037497;28;20021;-79
2023/04/17 03:07:18;;;;;;;13.70;9.20;;;333.00;2329.60;;;;;;5037826;28;20039;-81
2023/04/17 03:09:47;;;;;;;15.30;10.98;;;333.00;2329.60;;;;;;5037529;28;20082;-80
2023/04/17 03:12:14;;;;;;;19.20;12.77;;;333.00;2329.60;;;;;;5037806;28;20033;-80
2023/04/17 03:14:40;;;;;;;18.23;11.85;;;333.20;2329.60;;;;;;5037527;28;20032;-81
2023/04/17 03:17:06;;;;;;;15.55;11.57;;;333.60;2329.60;;;;;;5037208;28;20021;-80
2023/04/17 03:19:32;;;;;;;19.10;11.30;;;333.20;2329.60;;;;;;5037622;28;20067;-79
2023/04/17 03:21:58;;;;;;;16.17;11.43;;;333.10;2329.60;;;;;;5037391;28;20473;-78
2023/04/17 03:24:24;;;;;;;15.50;12.40;;;333.10;2329.60;;;;;;5037049;28;20059;-79
2023/04/17 03:26:50;;;;;;;15.18;13.27;;;332.90;2329.60;;;;;;5055327;28;20036;-80
2023/04/17 03:29:15;;;;;;;16.02;12.32;;;308.10;2304.00;;;;;;5055195;28;20052;-81
2023/04/17 03:31:41;;;;;;;15.02;12.10;;;307.90;2304.00;;;;;;5054686;28;20025;-80
2023/04/17 03:34:07;;;;;;;15.00;11.63;;;308.00;2304.00;;;;;;5037863;28;20037;-80
2023/04/17 03:36:33;;;;;;;17.35;13.52;;;308.10;2304.00;;;;;;5037246;28;20048;-81
2023/04/17 03:38:58;;;;;;;15.43;12.52;;;308.10;2304.00;;;;;;5036849;28;20049;-80
2023/04/17 03:41:24;;;;;;;15.52;12.05;;;308.10;2304.00;;;;;;5037170;28;20093;-81
2023/04/17 03:43:50;;;;;;;15.73;12.73;;;308.00;2304.00;;;;;;5037338;28;20032;-81
2023/04/17 03:46:16;;;;;;;18.08;12.40;;;308.10;2304.00;;;;;;5037044;28;20059;-82
2023/04/17 03:48:41;;;;;;;19.58;12.80;;;307.80;2304.00;;;;;;5037242;28;20025;-83
2023/04/17 03:51:07;;;;;;;17.45;12.43;;;307.90;2304.00;;;;;;5038672;28;20029;-83
2023/04/17 03:53:33;;;;;;;17.75;13.00;;;308.00;2304.00;;;;;;5054807;28;20059;-82
2023/04/17 03:55:59;;;;;;;19.50;14.55;;;308.00;2304.00;;;;;;5036863;28;20039;-81
2023/04/17 03:58:24;;;;;;;19.92;15.18;;;308.00;2304.00;;;;;;5036980;28;20059;-80
2023/04/17 04:00:54;;;;;;;21.20;14.40;;;308.10;2304.00;;;;;;5036685;28;20021;-80
2023/04/17 04:03:20;;;;;;;23.20;16.33;;;308.10;2304.00;;;;;;5036947;28;20021;-79
2023/04/17 04:05:46;;;;;;;26.63;18.45;;;308.10;2304.00;;;;;;5036399;28;20032;-82
2023/04/17 04:08:12;;;;;;;27.58;19.83;;;332.80;2329.60;;;;;;5036716;28;20036;-81
2023/04/17 04:10:38;;;;;;;26.27;17.13;;;332.90;2329.60;;;;;;5054421;28;20037;-78
2023/04/17 04:13:04;;;;;;;25.90;16.73;;;308.10;2304.00;;;;;;5053944;28;20025;-79
2023/04/17 04:15:29;;;;;;;20.27;14.27;;;308.00;2304.00;;;;;;5036604;28;20424;-79
2023/04/17 04:17:55;;;;;;;22.17;15.27;;;308.10;2304.00;;;;;;5036643;28;20025;-81
2023/04/17 04:20:21;;;;;;;18.70;14.45;;;332.80;2329.60;;;;;;5036126;28;20025;-80
2023/04/17 04:22:47;;;;;;;21.85;14.65;;;332.90;2329.60;;;;;;5054271;28;20025;-79
2023/04/17 04:25:15;;;;;;;37.55;23.42;;;333.00;2329.60;;;;;;5036400;28;20037;-80
2023/04/17 04:27:48;;;;;;;63.45;34.55;;;332.90;2329.60;;;;;;5036000;28;20082;-78
2023/04/17 04:30:18;;;;;;;68.88;38.13;;;333.00;2329.60;;;;;;5036269;28;20067;-78
2023/04/17 04:32:46;;;;;;;39.95;26.58;;;332.90;2329.60;;;;;;5036114;28;20074;-81
2023/04/17 04:35:14;;;;;;;36.47;23.27;;;308.00;2304.00;;;;;;5053780;28;20446;-79
2023/04/17 04:37:41;;;;;;;31.23;21.52;;;307.80;2304.00;;;;;;5053769;28;20041;-78
2023/04/17 04:40:13;;;;;;;23.38;16.15;;;308.00;2304.00;;;;;;5036056;28;20423;-81
2023/04/17 04:42:48;;;;;;;31.57;23.97;;;307.90;2304.00;;;;;;5035646;28;20025;-82
2023/04/17 04:45:14;;;;;;;29.38;21.80;;;307.80;2304.00;;;;;;5036235;28;20043;-81
2023/04/17 04:47:40;;;;;;;25.33;18.70;;;307.80;2304.00;;;;;;5035648;28;20035;-82
2023/04/17 04:50:07;;;;;;;19.30;15.02;;;307.90;2304.00;;;;;;5052293;28;20107;-79
2023/04/17 04:52:32;;;;;;;20.02;16.30;;;307.80;2304.00;;;;;;5052979;28;20075;-79
2023/04/17 04:54:58;;;;;;;19.30;16.23;;;307.80;2304.00;;;;;;5034442;28;20025;-82
2023/04/17 04:57:24;;;;;;;32.42;24.20;;;308.00;2304.00;;;;;;5035815;28;20032;-83
2023/04/17 04:59:50;;;;;;;27.48;24.58;;;307.70;2304.00;;;;;;5051932;28;20491;-82
2023/04/17 05:02:16;;;;;;;26.50;23.50;;;307.60;2304.00;;;;;;5035401;28;20112;-82
2023/04/17 05:04:41;;;;;;;23.05;20.67;;;307.80;2304.00;;;;;;5035757;28;20043;-81
2023/04/17 05:07:07;;;;;;;23.23;18.20;;;307.80;2304.00;;;;;;5054013;28;20025;-81
2023/04/17 05:09:34;;;;;;;19.42;16.63;;;307.90;2304.00;;;;;;5053276;28;20029;-82
2023/04/17 05:12:00;;;;;;;24.23;20.63;;;308.00;2304.00;;;;;;5035617;28;20479;-82
2023/04/17 05:14:26;;;;;;;32.58;25.20;;;307.90;2304.00;;;;;;5035745;28;20116;-82
2023/04/17 05:16:54;;;;;;;26.30;22.85;;;307.90;2304.00;;;;;;5035333;28;20029;-80
2023/04/17 05:19:20;;;;;;;25.60;20.95;;;307.90;2304.00;;;;;;5053512;28;20527;-79
2023/04/17 05:21:45;;;;;;;35.85;24.02;;;308.00;2304.00;;;;;;5035538;28;20032;-83
2023/04/17 05:24:11;;;;;;;30.30;22.85;;;332.80;2329.60;;;;;;5053262;28;20029;-82
2023/04/17 05:26:37;;;;;;;22.40;18.00;;;332.80;2329.60;;;;;;5035640;28;20056;-83
2023/04/17 05:29:03;;;;;;;21.40;17.17;;;332.80;2329.60;;;;;;5035426;28;20032;-82
2023/04/17 05:31:28;;;;;;;27.42;19.95;;;332.80;2329.60;;;;;;5035267;28;20029;-81
2023/04/17 05:33:54;;;;;;;18.98;15.02;;;332.90;2329.60;;;;;;5035676;28;20036;-83
2023/04/17 05:36:21;;;;;;;18.58;15.27;;;332.90;2329.60;;;;;;5035418;28;20465;-82
2023/04/17 05:38:47;;;;;;;18.67;16.25;;;332.90;2329.60;;;;;;5034841;28;20140;-82
2023/04/17 05:41:13;;;;;;;20.10;16.65;;;307.70;2304.00;;;;;;5035249;28;20033;-81
2023/04/17 05:43:39;;;;;;;25.38;18.13;;;332.90;2329.60;;;;;;5053108;28;20032;-82
2023/04/17 05:46:05;;;;;;;34.40;25.83;;;332.90;2329.60;;;;;;5051942;28;20112;-76
2023/04/17 05:48:31;;;;;;;37.45;25.77;;;332.90;2329.60;;;;;;5035577;28;20124;-80
2023/04/17 05:50:57;;;;;;;53.72;34.53;;;333.00;2329.60;;;;;;5051909;28;20096;-79
2023/04/17 05:53:22;;;;;;;70.78;42.60;;;333.00;2329.60;;;;;;5035330;28;20124;-78
2023/04/17 05:55:48;;;;;;;46.90;31.65;;;333.00;2329.60;;;;;;5053546;28;20065;-80
2023/04/17 05:58:14;;;;;;;41.20;28.98;;;333.00;2329.60;;;;;;5032872;28;20032;-81
2023/04/17 06:00:41;;;;;;;47.05;33.95;;;333.00;2329.60;;;;;;5034802;28;20380;-81
2023/04/17 06:03:06;;;;;;;44.20;32.65;;;333.00;2329.60;;;;;;5034128;28;20032;-81
2023/04/17 06:05:32;;;;;;;49.80;38.58;;;333.10;2329.60;;;;;;5035004;28;20033;-81
2023/04/17 06:07:58;;;;;;;56.10;45.55;;;333.10;2329.60;;;;;;5035235;28;20021;-80
2023/04/17 06:10:24;;;;;;;52.83;40.45;;;333.10;2329.60;;;;;;5036110;28;20029;-82
2023/04/17 06:12:51;;;;;;;45.42;35.90;;;333.30;2329.60;;;;;;5038690;28;20120;-81
2023/04/17 06:15:17;;;;;;;46.65;36.88;;;333.20;2329.60;;;;;;5038773;28;20044;-83
2023/04/17 06:17:42;;;;;;;37.80;30.98;;;333.20;2329.60;;;;;;5038770;28;20029;-81
2023/04/17 06:20:10;;;;;;;28.08;23.90;;;333.20;2329.60;;;;;;5038515;28;20113;-81
2023/04/17 06:22:38;;;;;;;27.08;22.13;;;333.20;2329.60;;;;;;5038645;28;20028;-81
2023/04/17 06:25:05;;;;;;;24.58;21.50;;;333.20;2329.60;;;;;;5038661;28;20404;-81
2023/04/17 06:27:31;;;;;;;23.80;21.20;;;333.10;2329.60;;;;;;5038465;28;20036;-81
2023/04/17 06:29:57;;;;;;;26.25;21.52;;;333.00;2329.60;;;;;;5038624;28;20025;-80
2023/04/17 06:32:22;;;;;;;21.40;17.48;;;333.00;2329.60;;;;;;5038522;28;20025;-82
2023/04/17 06:34:48;;;;;;;25.63;18.45;;;333.00;2329.60;;;;;;5038173;28;20119;-81
2023/04/17 06:37:14;;;;;;;23.67;18.48;;;333.00;2329.60;;;;;;5038365;28;20153;-82
2023/04/17 06:39:40;;;;;;;24.00;19.83;;;333.10;2329.60;;;;;;5038414;28;20033;-82
2023/04/17 06:42:06;;;;;;;25.13;21.60;;;333.10;2329.60;;;;;;5038423;28;20047;-81
2023/04/17 06:44:32;;;;;;;29.00;23.23;;;333.20;2329.60;;;;;;5038383;28;20025;-81
2023/04/17 06:47:02;;;;;;;29.02;23.45;;;333.20;2329.60;;;;;;5037786;28;20033;-81
2023/04/17 06:49:30;;;;;;;22.23;18.60;;;333.20;2329.60;;;;;;5038204;28;20063;-81
2023/04/17 06:51:56;;;;;;;24.05;18.90;;;333.30;2329.60;;;;;;5038207;28;20476;-81
2023/04/17 06:54:22;;;;;;;23.10;19.02;;;333.40;2329.60;;;;;;5037930;28;20029;-81
2023/04/17 06:56:48;;;;;;;27.08;22.23;;;333.30;2329.60;;;;;;5037926;28;20094;-82
2023/04/17 06:59:13;;;;;;;29.60;25.17;;;333.30;2329.60;;;;;;5038035;28;20028;-81
2023/04/17 07:01:39;;;;;;;34.03;27.15;;;333.40;2329.60;;;;;;5037822;28;20112;-81
2023/04/17 07:04:07;;;;;;;29.27;24.33;;;333.50;2329.60;;;;;;5038211;28;20456;-82
2023/04/17 07:06:33;;;;;;;31.45;25.88;;;333.60;2329.60;;;;;;5037963;28;20549;-83
2023/04/17 07:09:00;;;;;;;28.98;24.45;;;333.50;2329.60;;;;;;5037650;28;20033;-84
2023/04/17 07:11:26;;;;;;;42.33;33.15;;;333.60;2329.60;;;;;;5037998;28;20047;-82
2023/04/17 07:13:52;;;;;;;29.83;25.15;;;333.60;2329.60;;;;;;5037999;28;20033;-83
2023/04/17 07:16:17;;;;;;;31.13;25.73;;;333.40;2329.60;;;;;;5037284;28;20083;-83
2023/04/17 07:18:43;;;;;;;30.65;23.50;;;333.40;2329.60;;;;;;5037935;28;20029;-82
2023/04/17 07:21:09;;;;;;;27.00;22.15;;;333.40;2329.60;;;;;;5037776;28;20059;-83
2023/04/17 07:23:35;;;;;;;27.65;22.27;;;333.50;2329.60;;;;;;5037242;28;20061;-82
2023/04/17 07:26:01;;;;;;;24.40;19.73;;;333.60;2176.00;;;;;;5037913;28;20071;-83
2023/04/17 07:28:26;;;;;;;25.00;20.83;;;333.70;2329.60;;;;;;5055162;28;20029;-82
2023/04/17 07:30:53;;;;;;;22.40;18.05;;;333.70;2329.60;;;;;;5034006;28;20117;-82
2023/04/17 07:33:20;;;;;;;19.17;15.77;;;333.70;2329.60;;;;;;5034529;28;20508;-83
2023/04/17 07:35:46;;;;;;;21.27;18.70;;;333.70;2329.60;;;;;;5034287;28;20049;-83
2023/04/17 07:38:12;;;;;;;19.85;17.75;;;333.70;2329.60;;;;;;5034108;28;20524;-83
2023/04/17 07:40:38;;;;;;;20.40;16.55;;;358.40;2329.60;;;;;;5034559;28;20033;-84
2023/04/17 07:43:04;;;;;;;22.00;18.75;;;358.40;2329.60;;;;;;5034202;28;20377;-83
2023/04/17 07:45:30;;;;;;;26.08;20.83;;;358.40;2329.60;;;;;;5034412;28;20033;-83
2023/04/17 07:47:56;;;;;;;26.55;20.95;;;333.70;2329.60;;;;;;5034712;28;20021;-84
2023/04/17 07:50:22;;;;;;;26.45;20.23;;;358.50;2329.60;;;;;;5034285;28;20541;-83
2023/04/17 07:52:48;;;;;;;22.83;18.00;;;358.50;2329.60;;;;;;5035268;28;20107;-83
2023/04/17 07:55:14;;;;;;;24.85;19.35;;;358.50;2329.60;;;;;;5033877;28;20073;-81
2023/04/17 07:57:41;;;;;;;25.60;20.45;;;358.60;2329.60;;;;;;5036340;28;20028;-81
2023/04/17 08:00:10;;;;;;;22.23;18.88;;;358.50;2329.60;;;;;;5036882;28;20550;-81
2023/04/17 08:02:35;;;;;;;23.52;18.83;;;358.50;2329.60;;;;;;5036004;28;20036;-82
2023/04/17 08:05:04;;;;;;;21.88;18.50;;;358.50;2329.60;;;;;;5036677;28;20025;-84
2023/04/17 08:07:30;;;;;;;23.88;20.23;;;358.50;2329.60;;;;;;5036922;28;20025;-81
2023/04/17 08:09:56;;;;;;;19.63;17.05;;;358.60;2329.60;;;;;;5036683;28;20031;-85
2023/04/17 08:12:21;;;;;;;25.98;21.48;;;358.50;2329.60;;;;;;5037010;28;20025;-87
2023/04/17 08:14:48;;;;;;;29.52;24.75;;;358.60;2329.60;;;;;;5036530;28;20051;-82
2023/04/17 08:17:16;;;;;;;32.55;24.63;;;358.70;2329.60;;;;;;5036763;28;20044;-85
2023/04/17 08:19:42;;;;;;;24.67;20.92;;;358.70;2329.60;;;;;;5036511;28;20025;-84
2023/04/17 08:22:08;;;;;;;40.78;30.00;;;358.70;2329.60;;;;;;5054739;28;20029;-85
2023/04/17 08:24:34;;;;;;;28.83;24.33;;;358.70;2329.60;;;;;;5036859;28;20035;-84
2023/04/17 08:27:00;;;;;;;25.65;22.50;;;358.70;2329.60;;;;;;5036950;28;20025;-85
2023/04/17 08:29:26;;;;;;;28.55;23.20;;;358.70;2329.60;;;;;;5036932;28;20028;-88
2023/04/17 08:31:52;;;;;;;30.05;26.63;;;358.60;2329.60;;;;;;5037300;28;20067;-88
2023/04/17 08:34:17;;;;;;;35.38;29.45;;;358.60;2329.60;;;;;;5037486;28;20409;-88
2023/04/17 08:36:45;;;;;;;43.63;37.10;;;358.70;2329.60;;;;;;5037216;28;20033;-87
2023/04/17 08:39:11;;;;;;;40.67;29.75;;;358.80;2329.60;;;;;;5037271;28;20077;-88
2023/04/17 08:41:53;;;;;;;38.72;30.90;;;358.80;2329.60;;;;;;5037365;28;20461;-88
2023/04/17 08:44:20;;;;;;;36.25;32.05;;;358.80;2329.60;;;;;;5037339;28;20052;-87
2023/04/17 08:46:46;;;;;;;31.10;27.67;;;358.90;2329.60;;;;;;5037433;28;20124;-88
2023/04/17 08:49:12;;;;;;;32.20;27.40;;;359.00;2329.60;;;;;;5037712;28;20021;-88
2023/04/17 08:51:38;;;;;;;46.85;37.35;;;358.90;2329.60;;;;;;5037603;28;20396;-87
2023/04/17 08:54:04;;;;;;;30.13;25.63;;;358.90;2329.60;;;;;;5037252;28;20060;-87
2023/04/17 08:56:30;;;;;;;30.00;26.30;;;358.90;2329.60;;;;;;5037056;28;20039;-88
2023/04/17 08:58:56;;;;;;;27.85;24.92;;;358.90;2329.60;;;;;;5036917;28;20021;-88
2023/04/17 09:01:21;;;;;;;29.30;25.45;;;358.70;2329.60;;;;;;5037043;28;20021;-86
2023/04/17 09:03:50;;;;;;;28.00;24.67;;;358.70;2329.60;;;;;;5036777;28;20063;-87
2023/04/17 09:06:17;;;;;;;30.52;24.73;;;358.90;2329.60;;;;;;5037152;28;20604;-88
2023/04/17 09:09:02;;;;;;;29.63;26.42;;;358.90;2329.60;;;;;;5036984;28;20066;-88
2023/04/17 09:11:29;;;;;;;27.80;24.27;;;358.90;2329.60;;;;;;5037375;28;20025;-90
2023/04/17 09:13:56;;;;;;;26.80;23.98;;;358.90;2329.60;;;;;;5038542;28;20056;-87
2023/04/17 09:16:24;;;;;;;24.55;21.92;;;358.80;2329.60;;;;;;5021885;28;20033;-85
2023/04/17 09:18:50;;;;;;;34.95;28.92;;;358.90;2329.60;;;;;;5030718;28;20032;-85
2023/04/17 09:21:17;;;;;;;39.88;30.25;;;359.00;2329.60;;;;;;5019707;28;20025;-88
2023/04/17 09:23:53;;;;;;;39.10;26.88;;;359.10;2329.60;;;;;;5021948;28;20031;-87
2023/04/17 09:26:21;;;;;;;25.35;20.45;;;359.10;2329.60;;;;;;5049554;28;20036;-83
2023/04/17 09:29:00;;;;;;;30.20;25.90;;;359.20;2329.60;;;;;;5024545;28;20489;-84
2023/04/17 09:31:33;;;;;;;38.53;32.70;;;359.20;2329.60;;;;;;5040965;28;20057;-90
2023/04/17 09:34:03;;;;;;;33.97;27.15;;;359.20;2329.60;;;;;;5035216;28;20021;-88
2023/04/17 09:36:31;;;;;;;30.88;25.20;;;359.30;2329.60;;;;;;5036340;28;20036;-89
2023/04/17 09:38:59;;;;;;;28.27;22.73;;;359.20;2329.60;;;;;;5036115;28;20538;-89
2023/04/17 09:41:31;;;;;;;49.90;40.97;;;359.20;2329.60;;;;;;5037143;28;20044;-89
2023/04/17 09:44:05;;;;;;;31.52;25.25;;;359.20;2329.60;;;;;;5056643;28;20040;-89
2023/04/17 09:46:31;;;;;;;26.33;22.85;;;359.10;2329.60;;;;;;5077011;28;20032;-89
2023/04/17 09:49:05;;;;;;;30.25;25.25;;;359.10;2329.60;;;;;;5060112;28;20028;-89
2023/04/17 09:51:33;;;;;;;30.80;27.45;;;359.20;2329.60;;;;;;5023600;28;20449;-84
2023/04/17 09:54:04;;;;;;;24.33;20.45;;;359.30;2329.60;;;;;;5057079;28;20025;-82
2023/04/17 09:56:32;;;;;;;22.67;19.60;;;384.00;2329.60;;;;;;5027032;28;20059;-85
2023/04/17 09:59:01;;;;;;;33.88;26.08;;;384.20;2329.60;;;;;;5034338;28;20032;-84
2023/04/17 10:01:28;;;;;;;23.90;20.55;;;384.30;2329.60;;;;;;5035984;28;20132;-85
2023/04/17 10:03:56;;;;;;;31.88;27.60;;;384.40;2329.60;;;;;;5025457;28;20024;-85
2023/04/17 10:06:23;;;;;;;33.70;28.60;;;384.40;2329.60;;;;;;5028256;28;20033;-84
2023/04/17 10:08:49;;;;;;;26.55;21.38;;;384.60;2329.60;;;;;;5033154;28;20029;-84
2023/04/17 10:11:15;;;;;;;16.65;14.85;;;384.60;2329.60;;;;;;5022392;28;20025;-83
2023/04/17 10:13:43;;;;;;;16.40;14.35;;;384.70;2329.60;;;;;;5034420;28;20024;-85
2023/04/17 10:16:10;;;;;;;16.58;13.23;;;384.60;2329.60;;;;;;5027955;28;20032;-85
2023/04/17 10:18:35;;;;;;;14.88;12.60;;;384.60;2329.60;;;;;;5027664;28;20025;-85
2023/04/17 10:21:22;;;;;;;20.52;18.30;;;384.60;2329.60;;;;;;5019189;28;20021;-85
2023/04/17 10:23:48;;;;;;;22.50;19.00;;;384.70;2329.60;;;;;;5002727;28;20036;-85
2023/04/17 10:26:26;;;;;;;20.65;16.30;;;384.60;2329.60;;;;;;5028155;28;20051;-83
2023/04/17 10:28:55;;;;;;;33.75;26.63;;;384.70;2329.60;;;;;;5023968;28;20381;-83
2023/04/17 10:31:22;;;;;;;38.75;29.33;;;384.90;2329.60;;;;;;5035306;28;20035;-89
2023/04/17 10:33:54;;;;;;;48.50;34.85;;;409.60;2355.20;;;;;;5033640;28;20017;-88
2023/04/17 10:36:38;;;;;;;33.65;26.15;;;409.70;2355.20;;;;;;5039266;28;20040;-86
2023/04/17 10:39:19;;;;;;;36.72;32.05;;;409.80;2355.20;;;;;;5038988;28;20063;-87
2023/04/17 10:42:05;;;;;;;35.05;28.38;;;410.00;2355.20;;;;;;5019317;28;20025;-87
2023/04/17 10:44:37;;;;;;;66.70;51.25;;;410.40;2355.20;;;;;;5019600;28;20038;-86
2023/04/17 10:47:06;;;;;;;;;;;435.20;2355.20;;;;;;5037268;28;20030;-86
2023/04/17 10:49:52;;;;;;;43.00;31.02;;;435.20;2355.20;;;;;;5018999;28;19904;-88
2023/04/17 10:52:39;;;;;;;36.40;25.00;;;435.20;2355.20;;;;;;5019125;28;20474;-86
2023/04/17 10:55:06;;;;;;;19.92;15.25;;;435.30;2355.20;;;;;;5036819;28;20025;-87
2023/04/17 10:58:14;;;;;;;32.88;24.17;;;435.50;2355.20;;;;;;5017868;28;20093;-87
2023/04/17 11:00:50;;;;;;;43.63;29.92;;;435.40;2355.20;;;;;;4990678;28;20477;-87
2023/04/17 11:03:16;;;;;;;24.65;18.05;;;435.80;2355.20;;;;;;5018831;28;20063;-88
2023/04/17 11:05:46;;;;;;;18.38;14.75;;;435.90;2355.20;;;;;;5041555;28;20025;-88
2023/04/17 11:08:12;;;;;;;16.67;11.23;;;435.70;2355.20;;;;;;5038813;28;20079;-88
2023/04/17 11:10:38;;;;;;;16.05;10.73;;;435.60;2355.20;;;;;;5038594;28;20025;-87
2023/04/17 11:13:05;;;;;;;12.32;8.55;;;435.60;2355.20;;;;;;5038626;28;20029;-88
2023/04/17 11:15:33;;;;;;;23.08;16.98;;;435.50;2355.20;;;;;;5038652;28;20033;-88
2023/04/17 11:18:00;;;;;;;14.00;10.73;;;435.50;2355.20;;;;;;5038769;28;20032;-87
2023/04/17 11:20:28;;;;;;;11.25;8.65;;;435.50;2355.20;;;;;;5056108;28;20025;-87
2023/04/17 11:22:55;;;;;;;10.38;7.43;;;435.50;2355.20;;;;;;5055528;28;20032;-86
2023/04/17 11:25:26;;;;;;;10.38;6.97;;;435.60;2355.20;;;;;;5056249;28;20025;-88
2023/04/17 11:27:58;;;;;;;14.05;10.95;;;435.70;2355.20;;;;;;5038484;28;20029;-87
2023/04/17 11:30:34;;;;;;;11.60;8.73;;;460.80;2380.80;;;;;;5038670;28;20029;-88
2023/04/17 11:33:03;;;;;;;10.32;6.78;;;461.40;2380.80;;;;;;5038022;28;20033;-86
2023/04/17 11:35:37;;;;;;;9.93;6.38;;;486.40;2380.80;;;;;;5038005;28;20041;-86
2023/04/17 11:38:10;;;;;;;9.32;6.07;;;486.70;2380.80;;;;;;5037526;28;20064;-85
2023/04/17 11:40:42;;;;;;;15.63;6.03;;;487.10;2380.80;;;;;;5038179;28;20029;-84
2023/04/17 11:43:09;;;;;;;5.15;3.42;;;487.30;2380.80;;;;;;5055701;28;20479;-84
2023/04/17 11:45:36;;;;;;;8.93;5.30;;;487.20;2380.80;;;;;;5037459;28;20032;-85
2023/04/17 11:48:02;;;;;;;13.10;7.80;;;486.90;2380.80;;;;;;5038106;28;20075;-85
2023/04/17 11:50:32;;;;;;;10.60;6.70;;;486.80;2380.80;;;;;;5036932;28;20101;-85
2023/04/17 11:53:03;;;;;;;13.20;7.85;;;486.60;2380.80;;;;;;5037554;28;20025;-84
2023/04/17 11:55:30;;;;;;;12.90;9.02;;;486.50;2380.80;;;;;;5038883;28;20076;-85
2023/04/17 11:58:04;;;;;;;15.77;12.82;;;486.50;2380.80;;;;;;5036907;28;20106;-86
2023/04/17 12:00:30;;;;;;;11.32;8.20;;;486.50;2380.80;;;;;;5033378;28;20025;-86
2023/04/17 12:02:58;;;;;;;9.77;6.32;;;486.70;2380.80;;;;;;5017555;28;20036;-85